Terminal Aerodrome Forecast
Issued by NWS Newport/Morehead City, NC

Home | Current Version | Previous Version | Text Only | Print | Product List | Glossary On
Versions: 1 2 3 4 5 6 7 8 9 10 11 12 13 14 15 16 17 18 19 20 21 22 23 24
000
FTUS42 KMHX 241138
TAFEWN
TAF
KEWN 241138Z 2412/2512 VRB04KT 6SM BR BKN007
      TEMPO 2412/2414 1/4SM FG BKN003
     FM241500 23007KT P6SM SCT030
     FM241800 23009KT P6SM SCT035 SCT200
     FM250000 19008KT P6SM SCT200
     FM250700 21008KT P6SM SCT007=

USA.gov is the U.S. government's official web portal to all federal, state and local government web resources and services.